sensor_id;sensor_type;location;lat;lon;timestamp;P1;durP1;ratioP1;P2;durP2;ratioP2
48743;SDS011;34538;48.836;9.174;2023-02-25T00:00:26;9.73;;;3.92;;
48743;SDS011;34538;48.836;9.174;2023-02-25T00:02:57;8.65;;;3.72;;
48743;SDS011;34538;48.836;9.174;2023-02-25T00:05:24;8.50;;;4.43;;
48743;SDS011;34538;48.836;9.174;2023-02-25T00:07:52;9.50;;;3.70;;
48743;SDS011;34538;48.836;9.174;2023-02-25T00:10:19;7.70;;;4.20;;
48743;SDS011;34538;48.836;9.174;2023-02-25T00:12:46;7.85;;;4.25;;
48743;SDS011;34538;48.836;9.174;2023-02-25T00:15:13;8.95;;;3.88;;
48743;SDS011;34538;48.836;9.174;2023-02-25T00:17:39;8.77;;;3.92;;
48743;SDS011;34538;48.836;9.174;2023-02-25T00:20:10;7.22;;;4.15;;
48743;SDS011;34538;48.836;9.174;2023-02-25T00:22:38;8.18;;;3.90;;
48743;SDS011;34538;48.836;9.174;2023-02-25T00:25:05;7.00;;;4.43;;
48743;SDS011;34538;48.836;9.174;2023-02-25T00:27:33;9.23;;;4.75;;
48743;SDS011;34538;48.836;9.174;2023-02-25T00:30:00;8.43;;;4.10;;
48743;SDS011;34538;48.836;9.174;2023-02-25T00:32:27;11.15;;;4.45;;
48743;SDS011;34538;48.836;9.174;2023-02-25T00:34:54;7.35;;;4.10;;
48743;SDS011;34538;48.836;9.174;2023-02-25T00:37:23;8.32;;;4.13;;
48743;SDS011;34538;48.836;9.174;2023-02-25T00:39:50;8.90;;;3.63;;
48743;SDS011;34538;48.836;9.174;2023-02-25T00:42:18;6.70;;;3.63;;
48743;SDS011;34538;48.836;9.174;2023-02-25T00:44:45;8.57;;;3.92;;
48743;SDS011;34538;48.836;9.174;2023-02-25T00:47:14;6.05;;;3.42;;
48743;SDS011;34538;48.836;9.174;2023-02-25T00:49:43;8.48;;;3.45;;
48743;SDS011;34538;48.836;9.174;2023-02-25T00:52:11;6.82;;;3.92;;
48743;SDS011;34538;48.836;9.174;2023-02-25T00:54:39;4.97;;;3.40;;
48743;SDS011;34538;48.836;9.174;2023-02-25T00:57:06;13.25;;;3.35;;
48743;SDS011;34538;48.836;9.174;2023-02-25T00:59:34;8.75;;;3.15;;
48743;SDS011;34538;48.836;9.174;2023-02-25T01:02:01;6.25;;;3.25;;
48743;SDS011;34538;48.836;9.174;2023-02-25T01:04:28;7.18;;;3.25;;
48743;SDS011;34538;48.836;9.174;2023-02-25T01:06:55;7.63;;;3.47;;
48743;SDS011;34538;48.836;9.174;2023-02-25T01:09:21;7.38;;;3.47;;
48743;SDS011;34538;48.836;9.174;2023-02-25T01:11:50;7.25;;;3.25;;
48743;SDS011;34538;48.836;9.174;2023-02-25T01:14:18;7.72;;;3.75;;
48743;SDS011;34538;48.836;9.174;2023-02-25T01:16:46;6.95;;;3.67;;
48743;SDS011;34538;48.836;9.174;2023-02-25T01:19:16;7.60;;;3.38;;
48743;SDS011;34538;48.836;9.174;2023-02-25T01:21:46;7.30;;;3.20;;
48743;SDS011;34538;48.836;9.174;2023-02-25T01:24:16;7.90;;;3.58;;
48743;SDS011;34538;48.836;9.174;2023-02-25T01:26:45;6.78;;;3.25;;
48743;SDS011;34538;48.836;9.174;2023-02-25T01:29:15;6.03;;;3.05;;
48743;SDS011;34538;48.836;9.174;2023-02-25T01:31:44;7.80;;;2.95;;
48743;SDS011;34538;48.836;9.174;2023-02-25T01:34:12;4.95;;;2.95;;
48743;SDS011;34538;48.836;9.174;2023-02-25T01:36:40;5.55;;;2.85;;
48743;SDS011;34538;48.836;9.174;2023-02-25T01:39:07;6.35;;;3.00;;
48743;SDS011;34538;48.836;9.174;2023-02-25T01:41:35;8.13;;;3.05;;
48743;SDS011;34538;48.836;9.174;2023-02-25T01:44:04;7.05;;;3.50;;
48743;SDS011;34538;48.836;9.174;2023-02-25T01:46:35;7.45;;;3.72;;
48743;SDS011;34538;48.836;9.174;2023-02-25T01:49:04;4.97;;;2.83;;
48743;SDS011;34538;48.836;9.174;2023-02-25T01:51:32;7.15;;;3.03;;
48743;SDS011;34538;48.836;9.174;2023-02-25T01:54:01;4.80;;;2.72;;
48743;SDS011;34538;48.836;9.174;2023-02-25T01:56:32;5.32;;;2.53;;
48743;SDS011;34538;48.836;9.174;2023-02-25T01:58:59;4.55;;;2.42;;
48743;SDS011;34538;48.836;9.174;2023-02-25T02:01:28;5.80;;;2.35;;
48743;SDS011;34538;48.836;9.174;2023-02-25T02:03:59;4.30;;;2.30;;
48743;SDS011;34538;48.836;9.174;2023-02-25T02:06:30;4.93;;;2.30;;
48743;SDS011;34538;48.836;9.174;2023-02-25T02:08:59;6.22;;;2.47;;
48743;SDS011;34538;48.836;9.174;2023-02-25T02:11:28;4.80;;;2.10;;
48743;SDS011;34538;48.836;9.174;2023-02-25T02:13:55;4.80;;;2.35;;
48743;SDS011;34538;48.836;9.174;2023-02-25T02:16:33;4.32;;;2.30;;
48743;SDS011;34538;48.836;9.174;2023-02-25T02:19:15;4.43;;;2.00;;
48743;SDS011;34538;48.836;9.174;2023-02-25T02:21:56;5.18;;;2.20;;
48743;SDS011;34538;48.836;9.174;2023-02-25T02:24:32;4.30;;;2.33;;
48743;SDS011;34538;48.836;9.174;2023-02-25T02:27:20;5.35;;;2.50;;
48743;SDS011;34538;48.836;9.174;2023-02-25T02:30:02;4.15;;;2.05;;
48743;SDS011;34538;48.836;9.174;2023-02-25T02:32:44;6.43;;;2.70;;
48743;SDS011;34538;48.836;9.174;2023-02-25T02:35:17;3.10;;;2.03;;
48743;SDS011;34538;48.836;9.174;2023-02-25T02:37:51;7.05;;;2.30;;
48743;SDS011;34538;48.836;9.174;2023-02-25T02:40:29;3.63;;;2.17;;
48743;SDS011;34538;48.836;9.174;2023-02-25T02:43:05;13.23;;;2.83;;
48743;SDS011;34538;48.836;9.174;2023-02-25T02:45:39;4.85;;;2.22;;
48743;SDS011;34538;48.836;9.174;2023-02-25T02:48:12;6.35;;;2.83;;
48743;SDS011;34538;48.836;9.174;2023-02-25T02:50:44;5.35;;;2.88;;
48743;SDS011;34538;48.836;9.174;2023-02-25T02:53:17;7.53;;;2.70;;
48743;SDS011;34538;48.836;9.174;2023-02-25T02:55:49;5.07;;;2.13;;
48743;SDS011;34538;48.836;9.174;2023-02-25T02:58:21;3.90;;;2.60;;
48743;SDS011;34538;48.836;9.174;2023-02-25T03:00:52;4.40;;;2.20;;
48743;SDS011;34538;48.836;9.174;2023-02-25T03:03:26;4.68;;;2.17;;
48743;SDS011;34538;48.836;9.174;2023-02-25T03:06:01;4.47;;;2.08;;
48743;SDS011;34538;48.836;9.174;2023-02-25T03:08:30;4.72;;;2.13;;
48743;SDS011;34538;48.836;9.174;2023-02-25T03:11:01;5.75;;;2.35;;
48743;SDS011;34538;48.836;9.174;2023-02-25T03:13:29;6.40;;;2.47;;
48743;SDS011;34538;48.836;9.174;2023-02-25T03:15:57;5.25;;;2.20;;
48743;SDS011;34538;48.836;9.174;2023-02-25T03:18:28;4.18;;;2.08;;
48743;SDS011;34538;48.836;9.174;2023-02-25T03:21:03;4.35;;;2.40;;
48743;SDS011;34538;48.836;9.174;2023-02-25T03:23:37;5.22;;;2.30;;
48743;SDS011;34538;48.836;9.174;2023-02-25T03:26:09;4.97;;;2.17;;
48743;SDS011;34538;48.836;9.174;2023-02-25T03:28:39;5.75;;;2.42;;
48743;SDS011;34538;48.836;9.174;2023-02-25T03:31:10;3.15;;;1.35;;
48743;SDS011;34538;48.836;9.174;2023-02-25T03:33:48;4.22;;;1.77;;
48743;SDS011;34538;48.836;9.174;2023-02-25T03:36:21;4.57;;;2.30;;
48743;SDS011;34538;48.836;9.174;2023-02-25T03:38:53;2.53;;;1.55;;
48743;SDS011;34538;48.836;9.174;2023-02-25T03:41:26;3.92;;;2.05;;
48743;SDS011;34538;48.836;9.174;2023-02-25T03:43:59;4.10;;;2.35;;
48743;SDS011;34538;48.836;9.174;2023-02-25T03:46:30;7.47;;;3.42;;
48743;SDS011;34538;48.836;9.174;2023-02-25T03:49:00;7.65;;;3.65;;
48743;SDS011;34538;48.836;9.174;2023-02-25T03:51:29;6.82;;;2.45;;
48743;SDS011;34538;48.836;9.174;2023-02-25T03:53:58;3.85;;;1.60;;
48743;SDS011;34538;48.836;9.174;2023-02-25T03:59:04;4.60;;;2.10;;
48743;SDS011;34538;48.836;9.174;2023-02-25T04:01:31;10.48;;;3.63;;
48743;SDS011;34538;48.836;9.174;2023-02-25T04:04:00;6.70;;;2.97;;
48743;SDS011;34538;48.836;9.174;2023-02-25T04:06:27;5.97;;;2.22;;
48743;SDS011;34538;48.836;9.174;2023-02-25T04:08:54;4.32;;;1.77;;
48743;SDS011;34538;48.836;9.174;2023-02-25T04:11:21;6.05;;;2.38;;
48743;SDS011;34538;48.836;9.174;2023-02-25T04:13:48;4.25;;;1.55;;
48743;SDS011;34538;48.836;9.174;2023-02-25T04:16:16;4.78;;;1.50;;
48743;SDS011;34538;48.836;9.174;2023-02-25T04:18:44;6.07;;;1.88;;
48743;SDS011;34538;48.836;9.174;2023-02-25T04:21:21;4.63;;;1.27;;
48743;SDS011;34538;48.836;9.174;2023-02-25T04:23:52;4.95;;;1.08;;
48743;SDS011;34538;48.836;9.174;2023-02-25T04:26:19;3.83;;;1.30;;
48743;SDS011;34538;48.836;9.174;2023-02-25T04:28:45;3.47;;;1.30;;
48743;SDS011;34538;48.836;9.174;2023-02-25T04:31:12;3.00;;;1.40;;
48743;SDS011;34538;48.836;9.174;2023-02-25T04:33:39;2.60;;;1.00;;
48743;SDS011;34538;48.836;9.174;2023-02-25T04:36:21;3.33;;;1.38;;
48743;SDS011;34538;48.836;9.174;2023-02-25T04:38:49;4.18;;;0.90;;
48743;SDS011;34538;48.836;9.174;2023-02-25T04:41:16;1.70;;;1.00;;
48743;SDS011;34538;48.836;9.174;2023-02-25T04:43:43;3.55;;;1.20;;
48743;SDS011;34538;48.836;9.174;2023-02-25T04:46:10;6.22;;;1.17;;
48743;SDS011;34538;48.836;9.174;2023-02-25T04:48:38;3.40;;;1.17;;
48743;SDS011;34538;48.836;9.174;2023-02-25T04:51:05;3.17;;;1.10;;
48743;SDS011;34538;48.836;9.174;2023-02-25T04:53:34;5.15;;;1.80;;
48743;SDS011;34538;48.836;9.174;2023-02-25T04:56:01;1.92;;;1.20;;
48743;SDS011;34538;48.836;9.174;2023-02-25T04:58:29;3.08;;;1.15;;
48743;SDS011;34538;48.836;9.174;2023-02-25T05:00:57;5.35;;;1.30;;
48743;SDS011;34538;48.836;9.174;2023-02-25T05:03:24;4.53;;;1.08;;
48743;SDS011;34538;48.836;9.174;2023-02-25T05:05:52;3.28;;;1.10;;
48743;SDS011;34538;48.836;9.174;2023-02-25T05:08:19;2.63;;;0.88;;
48743;SDS011;34538;48.836;9.174;2023-02-25T05:10:47;2.75;;;1.00;;
48743;SDS011;34538;48.836;9.174;2023-02-25T05:13:15;2.92;;;0.80;;
48743;SDS011;34538;48.836;9.174;2023-02-25T05:15:42;4.05;;;1.20;;
48743;SDS011;34538;48.836;9.174;2023-02-25T05:18:09;3.15;;;1.00;;
48743;SDS011;34538;48.836;9.174;2023-02-25T05:20:38;4.32;;;1.10;;
48743;SDS011;34538;48.836;9.174;2023-02-25T05:23:05;3.80;;;1.05;;
48743;SDS011;34538;48.836;9.174;2023-02-25T05:25:32;2.55;;;1.27;;
48743;SDS011;34538;48.836;9.174;2023-02-25T05:28:00;4.95;;;0.90;;
48743;SDS011;34538;48.836;9.174;2023-02-25T05:30:27;1.92;;;1.05;;
48743;SDS011;34538;48.836;9.174;2023-02-25T05:32:54;4.05;;;1.40;;
48743;SDS011;34538;48.836;9.174;2023-02-25T05:35:21;2.17;;;1.40;;
48743;SDS011;34538;48.836;9.174;2023-02-25T05:37:48;3.88;;;0.93;;
48743;SDS011;34538;48.836;9.174;2023-02-25T05:40:15;2.17;;;0.95;;
48743;SDS011;34538;48.836;9.174;2023-02-25T05:42:42;2.50;;;0.90;;
48743;SDS011;34538;48.836;9.174;2023-02-25T05:45:11;2.30;;;0.90;;
48743;SDS011;34538;48.836;9.174;2023-02-25T05:47:38;5.07;;;0.90;;
48743;SDS011;34538;48.836;9.174;2023-02-25T05:50:05;3.33;;;0.88;;
48743;SDS011;34538;48.836;9.174;2023-02-25T05:52:32;2.25;;;0.80;;
48743;SDS011;34538;48.836;9.174;2023-02-25T05:54:59;3.83;;;0.70;;
48743;SDS011;34538;48.836;9.174;2023-02-25T05:57:27;2.58;;;0.65;;
48743;SDS011;34538;48.836;9.174;2023-02-25T05:59:54;2.00;;;0.60;;
48743;SDS011;34538;48.836;9.174;2023-02-25T06:02:22;3.67;;;0.70;;
48743;SDS011;34538;48.836;9.174;2023-02-25T06:04:51;3.33;;;0.70;;
48743;SDS011;34538;48.836;9.174;2023-02-25T06:07:18;4.30;;;0.70;;
48743;SDS011;34538;48.836;9.174;2023-02-25T06:09:45;3.72;;;0.88;;
48743;SDS011;34538;48.836;9.174;2023-02-25T06:12:12;1.80;;;0.70;;
48743;SDS011;34538;48.836;9.174;2023-02-25T06:14:38;2.42;;;0.85;;
48743;SDS011;34538;48.836;9.174;2023-02-25T06:17:05;1.67;;;0.90;;
48743;SDS011;34538;48.836;9.174;2023-02-25T06:19:33;4.35;;;1.00;;
48743;SDS011;34538;48.836;9.174;2023-02-25T06:22:00;3.28;;;0.70;;
48743;SDS011;34538;48.836;9.174;2023-02-25T06:24:27;1.38;;;0.55;;
48743;SDS011;34538;48.836;9.174;2023-02-25T06:26:54;3.50;;;1.40;;
48743;SDS011;34538;48.836;9.174;2023-02-25T06:29:21;2.47;;;0.90;;
48743;SDS011;34538;48.836;9.174;2023-02-25T06:31:48;2.20;;;0.80;;
48743;SDS011;34538;48.836;9.174;2023-02-25T06:34:15;1.25;;;0.68;;
48743;SDS011;34538;48.836;9.174;2023-02-25T06:36:44;4.85;;;0.98;;
48743;SDS011;34538;48.836;9.174;2023-02-25T06:39:11;1.88;;;0.88;;
48743;SDS011;34538;48.836;9.174;2023-02-25T06:41:38;3.75;;;1.55;;
48743;SDS011;34538;48.836;9.174;2023-02-25T06:44:05;6.22;;;1.17;;
48743;SDS011;34538;48.836;9.174;2023-02-25T06:46:32;2.03;;;0.85;;
48743;SDS011;34538;48.836;9.174;2023-02-25T06:48:59;3.88;;;1.00;;
48743;SDS011;34538;48.836;9.174;2023-02-25T06:51:26;3.92;;;1.10;;
48743;SDS011;34538;48.836;9.174;2023-02-25T06:53:54;5.53;;;0.95;;
48743;SDS011;34538;48.836;9.174;2023-02-25T06:56:21;3.38;;;1.25;;
48743;SDS011;34538;48.836;9.174;2023-02-25T06:58:48;2.90;;;1.15;;
48743;SDS011;34538;48.836;9.174;2023-02-25T07:01:16;4.88;;;0.90;;
48743;SDS011;34538;48.836;9.174;2023-02-25T07:03:43;1.70;;;1.00;;
48743;SDS011;34538;48.836;9.174;2023-02-25T07:06:10;4.03;;;1.00;;
48743;SDS011;34538;48.836;9.174;2023-02-25T07:08:39;1.92;;;0.95;;
48743;SDS011;34538;48.836;9.174;2023-02-25T07:11:23;2.75;;;0.88;;
48743;SDS011;34538;48.836;9.174;2023-02-25T07:13:53;2.78;;;0.90;;
48743;SDS011;34538;48.836;9.174;2023-02-25T07:16:20;3.35;;;1.00;;
48743;SDS011;34538;48.836;9.174;2023-02-25T07:18:47;3.20;;;0.80;;
48743;SDS011;34538;48.836;9.174;2023-02-25T07:21:15;3.95;;;0.93;;
48743;SDS011;34538;48.836;9.174;2023-02-25T07:23:42;2.22;;;0.90;;
48743;SDS011;34538;48.836;9.174;2023-02-25T07:26:11;2.45;;;0.70;;
48743;SDS011;34538;48.836;9.174;2023-02-25T07:28:40;3.33;;;1.25;;
48743;SDS011;34538;48.836;9.174;2023-02-25T07:31:09;1.33;;;0.75;;
48743;SDS011;34538;48.836;9.174;2023-02-25T07:33:37;4.20;;;1.85;;
48743;SDS011;34538;48.836;9.174;2023-02-25T07:36:06;5.22;;;1.27;;
48743;SDS011;34538;48.836;9.174;2023-02-25T07:38:33;2.95;;;0.90;;
48743;SDS011;34538;48.836;9.174;2023-02-25T07:41:02;1.92;;;0.93;;
48743;SDS011;34538;48.836;9.174;2023-02-25T07:43:30;5.65;;;1.40;;
48743;SDS011;34538;48.836;9.174;2023-02-25T07:45:58;3.95;;;1.20;;
48743;SDS011;34538;48.836;9.174;2023-02-25T07:48:25;2.15;;;0.73;;
48743;SDS011;34538;48.836;9.174;2023-02-25T07:50:52;6.80;;;1.20;;
48743;SDS011;34538;48.836;9.174;2023-02-25T07:53:19;4.10;;;0.85;;
48743;SDS011;34538;48.836;9.174;2023-02-25T07:55:47;2.97;;;0.93;;
48743;SDS011;34538;48.836;9.174;2023-02-25T07:58:14;2.15;;;0.90;;
48743;SDS011;34538;48.836;9.174;2023-02-25T08:00:41;3.80;;;1.10;;
48743;SDS011;34538;48.836;9.174;2023-02-25T08:03:11;1.88;;;0.80;;
48743;SDS011;34538;48.836;9.174;2023-02-25T08:05:38;2.53;;;0.80;;
48743;SDS011;34538;48.836;9.174;2023-02-25T08:08:05;3.78;;;0.90;;
48743;SDS011;34538;48.836;9.174;2023-02-25T08:10:35;1.10;;;0.70;;
48743;SDS011;34538;48.836;9.174;2023-02-25T08:13:02;3.63;;;1.10;;
48743;SDS011;34538;48.836;9.174;2023-02-25T08:15:29;6.05;;;1.10;;
48743;SDS011;34538;48.836;9.174;2023-02-25T08:17:56;2.50;;;0.65;;
48743;SDS011;34538;48.836;9.174;2023-02-25T08:20:24;4.38;;;0.98;;
48743;SDS011;34538;48.836;9.174;2023-02-25T08:22:51;11.00;;;3.50;;
48743;SDS011;34538;48.836;9.174;2023-02-25T08:25:21;6.90;;;1.30;;
48743;SDS011;34538;48.836;9.174;2023-02-25T08:27:48;2.35;;;0.95;;
48743;SDS011;34538;48.836;9.174;2023-02-25T08:30:15;5.30;;;2.10;;
48743;SDS011;34538;48.836;9.174;2023-02-25T08:32:42;3.60;;;1.05;;
48743;SDS011;34538;48.836;9.174;2023-02-25T08:35:09;3.83;;;0.88;;
48743;SDS011;34538;48.836;9.174;2023-02-25T08:37:37;3.42;;;0.90;;
48743;SDS011;34538;48.836;9.174;2023-02-25T08:40:05;2.20;;;0.80;;
48743;SDS011;34538;48.836;9.174;2023-02-25T08:42:34;2.30;;;0.88;;
48743;SDS011;34538;48.836;9.174;2023-02-25T08:45:01;2.67;;;0.75;;
48743;SDS011;34538;48.836;9.174;2023-02-25T08:47:29;2.40;;;0.98;;
48743;SDS011;34538;48.836;9.174;2023-02-25T08:49:56;2.88;;;0.80;;
48743;SDS011;34538;48.836;9.174;2023-02-25T08:52:23;5.13;;;1.23;;
48743;SDS011;34538;48.836;9.174;2023-02-25T08:54:51;1.85;;;0.88;;
48743;SDS011;34538;48.836;9.174;2023-02-25T08:57:17;3.55;;;0.80;;
48743;SDS011;34538;48.836;9.174;2023-02-25T08:59:44;1.90;;;0.60;;
48743;SDS011;34538;48.836;9.174;2023-02-25T09:02:11;2.20;;;0.90;;
48743;SDS011;34538;48.836;9.174;2023-02-25T09:04:41;2.45;;;0.70;;
48743;SDS011;34538;48.836;9.174;2023-02-25T09:07:08;3.40;;;1.30;;
48743;SDS011;34538;48.836;9.174;2023-02-25T09:09:38;2.30;;;1.05;;
48743;SDS011;34538;48.836;9.174;2023-02-25T09:12:06;1.40;;;0.85;;
48743;SDS011;34538;48.836;9.174;2023-02-25T09:14:33;2.38;;;0.90;;
48743;SDS011;34538;48.836;9.174;2023-02-25T09:17:00;3.78;;;1.10;;
48743;SDS011;34538;48.836;9.174;2023-02-25T09:19:28;3.13;;;0.80;;
48743;SDS011;34538;48.836;9.174;2023-02-25T09:21:55;2.20;;;0.80;;
48743;SDS011;34538;48.836;9.174;2023-02-25T09:24:22;4.15;;;0.85;;
48743;SDS011;34538;48.836;9.174;2023-02-25T09:26:49;4.88;;;1.00;;
48743;SDS011;34538;48.836;9.174;2023-02-25T09:29:17;2.33;;;0.70;;
48743;SDS011;34538;48.836;9.174;2023-02-25T09:31:44;2.90;;;0.60;;
48743;SDS011;34538;48.836;9.174;2023-02-25T09:34:11;1.15;;;0.40;;
48743;SDS011;34538;48.836;9.174;2023-02-25T09:36:39;3.72;;;1.05;;
48743;SDS011;34538;48.836;9.174;2023-02-25T09:39:06;2.53;;;0.45;;
48743;SDS011;34538;48.836;9.174;2023-02-25T09:41:34;2.25;;;0.90;;
48743;SDS011;34538;48.836;9.174;2023-02-25T09:44:10;3.20;;;0.80;;
48743;SDS011;34538;48.836;9.174;2023-02-25T09:46:45;1.35;;;0.50;;
48743;SDS011;34538;48.836;9.174;2023-02-25T09:49:17;3.20;;;0.40;;
48743;SDS011;34538;48.836;9.174;2023-02-25T09:51:52;3.10;;;0.60;;
48743;SDS011;34538;48.836;9.174;2023-02-25T09:54:24;1.27;;;0.50;;
48743;SDS011;34538;48.836;9.174;2023-02-25T09:56:55;0.47;;;0.40;;
48743;SDS011;34538;48.836;9.174;2023-02-25T09:59:25;1.55;;;0.40;;
48743;SDS011;34538;48.836;9.174;2023-02-25T10:01:56;0.63;;;0.40;;
48743;SDS011;34538;48.836;9.174;2023-02-25T10:04:30;2.40;;;0.77;;
48743;SDS011;34538;48.836;9.174;2023-02-25T10:07:05;0.60;;;0.30;;
48743;SDS011;34538;48.836;9.174;2023-02-25T10:09:41;3.47;;;0.40;;
48743;SDS011;34538;48.836;9.174;2023-02-25T10:12:16;1.80;;;0.52;;
48743;SDS011;34538;48.836;9.174;2023-02-25T10:14:59;4.88;;;0.55;;
48743;SDS011;34538;48.836;9.174;2023-02-25T10:17:43;0.28;;;0.25;;
48743;SDS011;34538;48.836;9.174;2023-02-25T10:20:32;1.23;;;0.45;;
48743;SDS011;34538;48.836;9.174;2023-02-25T10:23:16;3.20;;;0.70;;
48743;SDS011;34538;48.836;9.174;2023-02-25T10:25:54;0.75;;;0.38;;
48743;SDS011;34538;48.836;9.174;2023-02-25T10:28:23;1.85;;;0.30;;
48743;SDS011;34538;48.836;9.174;2023-02-25T10:30:53;1.88;;;0.50;;
48743;SDS011;34538;48.836;9.174;2023-02-25T10:33:26;1.65;;;0.40;;
48743;SDS011;34538;48.836;9.174;2023-02-25T10:35:56;1.38;;;0.40;;
48743;SDS011;34538;48.836;9.174;2023-02-25T10:38:28;2.35;;;0.70;;
48743;SDS011;34538;48.836;9.174;2023-02-25T10:40:55;1.58;;;0.40;;
48743;SDS011;34538;48.836;9.174;2023-02-25T10:43:24;0.73;;;0.40;;
48743;SDS011;34538;48.836;9.174;2023-02-25T10:45:54;0.60;;;0.30;;
48743;SDS011;34538;48.836;9.174;2023-02-25T10:48:27;2.97;;;0.50;;
48743;SDS011;34538;48.836;9.174;2023-02-25T10:51:06;1.67;;;0.50;;
48743;SDS011;34538;48.836;9.174;2023-02-25T10:53:36;1.88;;;0.40;;
48743;SDS011;34538;48.836;9.174;2023-02-25T10:56:04;1.35;;;0.50;;
48743;SDS011;34538;48.836;9.174;2023-02-25T10:58:36;0.85;;;0.30;;
48743;SDS011;34538;48.836;9.174;2023-02-25T11:01:06;2.13;;;0.70;;
48743;SDS011;34538;48.836;9.174;2023-02-25T11:03:43;2.13;;;0.60;;
48743;SDS011;34538;48.836;9.174;2023-02-25T11:06:17;3.17;;;0.95;;
48743;SDS011;34538;48.836;9.174;2023-02-25T11:08:47;4.22;;;0.60;;
48743;SDS011;34538;48.836;9.174;2023-02-25T11:11:18;2.00;;;0.57;;
48743;SDS011;34538;48.836;9.174;2023-02-25T11:13:52;3.65;;;0.85;;
48743;SDS011;34538;48.836;9.174;2023-02-25T11:16:24;3.50;;;0.93;;
48743;SDS011;34538;48.836;9.174;2023-02-25T11:18:55;2.65;;;0.77;;
48743;SDS011;34538;48.836;9.174;2023-02-25T11:21:33;2.67;;;0.65;;
48743;SDS011;34538;48.836;9.174;2023-02-25T11:24:03;1.67;;;0.82;;
48743;SDS011;34538;48.836;9.174;2023-02-25T11:26:36;4.05;;;0.90;;
48743;SDS011;34538;48.836;9.174;2023-02-25T11:29:07;1.65;;;0.65;;
48743;SDS011;34538;48.836;9.174;2023-02-25T11:31:38;3.42;;;0.70;;
48743;SDS011;34538;48.836;9.174;2023-02-25T11:34:12;1.83;;;0.80;;
48743;SDS011;34538;48.836;9.174;2023-02-25T11:36:43;3.40;;;0.95;;
48743;SDS011;34538;48.836;9.174;2023-02-25T11:39:13;4.03;;;1.17;;
48743;SDS011;34538;48.836;9.174;2023-02-25T11:41:42;3.38;;;0.82;;
48743;SDS011;34538;48.836;9.174;2023-02-25T11:44:21;3.90;;;0.85;;
48743;SDS011;34538;48.836;9.174;2023-02-25T11:46:54;2.07;;;0.70;;
48743;SDS011;34538;48.836;9.174;2023-02-25T11:49:29;1.52;;;0.95;;
48743;SDS011;34538;48.836;9.174;2023-02-25T11:52:10;3.33;;;0.90;;
48743;SDS011;34538;48.836;9.174;2023-02-25T11:54:44;1.08;;;0.73;;
48743;SDS011;34538;48.836;9.174;2023-02-25T11:57:21;2.88;;;1.05;;
48743;SDS011;34538;48.836;9.174;2023-02-25T12:00:03;3.28;;;1.00;;
48743;SDS011;34538;48.836;9.174;2023-02-25T12:02:47;3.10;;;0.93;;
48743;SDS011;34538;48.836;9.174;2023-02-25T12:08:37;1.70;;;1.30;;
48743;SDS011;34538;48.836;9.174;2023-02-25T12:11:19;3.78;;;1.13;;
48743;SDS011;34538;48.836;9.174;2023-02-25T12:17:40;2.10;;;1.08;;
48743;SDS011;34538;48.836;9.174;2023-02-25T12:20:43;3.33;;;1.13;;
48743;SDS011;34538;48.836;9.174;2023-02-25T12:32:38;5.53;;;1.25;;
48743;SDS011;34538;48.836;9.174;2023-02-25T12:35:22;1.35;;;0.80;;
48743;SDS011;34538;48.836;9.174;2023-02-25T12:38:28;6.30;;;2.05;;
48743;SDS011;34538;48.836;9.174;2023-02-25T12:41:37;2.50;;;1.10;;
48743;SDS011;34538;48.836;9.174;2023-02-25T12:44:22;4.90;;;1.20;;
48743;SDS011;34538;48.836;9.174;2023-02-25T12:47:06;4.40;;;1.15;;
48743;SDS011;34538;48.836;9.174;2023-02-25T12:53:17;4.13;;;1.27;;
48743;SDS011;34538;48.836;9.174;2023-02-25T12:56:01;5.28;;;1.50;;
48743;SDS011;34538;48.836;9.174;2023-02-25T12:58:42;1.92;;;1.10;;
48743;SDS011;34538;48.836;9.174;2023-02-25T13:01:24;9.25;;;1.35;;
48743;SDS011;34538;48.836;9.174;2023-02-25T13:04:03;3.85;;;1.58;;
48743;SDS011;34538;48.836;9.174;2023-02-25T13:06:59;2.75;;;1.10;;
48743;SDS011;34538;48.836;9.174;2023-02-25T13:12:57;1.73;;;1.15;;
48743;SDS011;34538;48.836;9.174;2023-02-25T13:15:31;7.25;;;2.70;;
48743;SDS011;34538;48.836;9.174;2023-02-25T13:18:15;4.65;;;1.52;;
48743;SDS011;34538;48.836;9.174;2023-02-25T13:20:51;5.80;;;2.55;;
48743;SDS011;34538;48.836;9.174;2023-02-25T13:23:36;7.57;;;2.38;;
48743;SDS011;34538;48.836;9.174;2023-02-25T13:26:26;3.15;;;1.20;;
48743;SDS011;34538;48.836;9.174;2023-02-25T13:29:09;2.80;;;1.10;;
48743;SDS011;34538;48.836;9.174;2023-02-25T13:31:50;3.20;;;1.33;;
48743;SDS011;34538;48.836;9.174;2023-02-25T13:34:26;3.67;;;1.50;;
48743;SDS011;34538;48.836;9.174;2023-02-25T13:37:02;3.42;;;1.08;;
48743;SDS011;34538;48.836;9.174;2023-02-25T13:39:47;3.05;;;1.20;;
48743;SDS011;34538;48.836;9.174;2023-02-25T13:42:48;3.67;;;0.95;;
48743;SDS011;34538;48.836;9.174;2023-02-25T13:45:49;3.92;;;0.82;;
48743;SDS011;34538;48.836;9.174;2023-02-25T13:48:36;4.20;;;1.25;;
48743;SDS011;34538;48.836;9.174;2023-02-25T13:54:46;2.67;;;0.85;;
48743;SDS011;34538;48.836;9.174;2023-02-25T14:00:20;3.00;;;0.90;;
48743;SDS011;34538;48.836;9.174;2023-02-25T14:03:08;4.97;;;0.90;;
48743;SDS011;34538;48.836;9.174;2023-02-25T14:06:01;3.70;;;1.42;;
48743;SDS011;34538;48.836;9.174;2023-02-25T14:08:42;5.78;;;1.17;;
48743;SDS011;34538;48.836;9.174;2023-02-25T14:11:32;2.97;;;1.20;;
48743;SDS011;34538;48.836;9.174;2023-02-25T14:14:17;3.17;;;1.20;;
48743;SDS011;34538;48.836;9.174;2023-02-25T14:17:07;4.72;;;1.20;;
48743;SDS011;34538;48.836;9.174;2023-02-25T14:19:44;6.53;;;1.73;;
48743;SDS011;34538;48.836;9.174;2023-02-25T14:22:33;5.75;;;1.42;;
48743;SDS011;34538;48.836;9.174;2023-02-25T14:25:15;4.03;;;1.10;;
48743;SDS011;34538;48.836;9.174;2023-02-25T14:27:50;4.28;;;1.02;;
48743;SDS011;34538;48.836;9.174;2023-02-25T14:30:29;4.88;;;1.10;;
48743;SDS011;34538;48.836;9.174;2023-02-25T14:33:08;3.92;;;1.20;;
48743;SDS011;34538;48.836;9.174;2023-02-25T14:38:46;3.08;;;0.88;;
48743;SDS011;34538;48.836;9.174;2023-02-25T14:41:29;4.70;;;1.50;;
48743;SDS011;34538;48.836;9.174;2023-02-25T14:44:05;5.75;;;1.45;;
48743;SDS011;34538;48.836;9.174;2023-02-25T14:46:38;3.92;;;1.35;;
48743;SDS011;34538;48.836;9.174;2023-02-25T14:49:08;1.93;;;0.73;;
48743;SDS011;34538;48.836;9.174;2023-02-25T14:58:07;7.38;;;1.40;;
48743;SDS011;34538;48.836;9.174;2023-02-25T15:01:06;3.42;;;1.17;;
48743;SDS011;34538;48.836;9.174;2023-02-25T15:03:56;1.30;;;0.63;;
48743;SDS011;34538;48.836;9.174;2023-02-25T15:06:40;4.38;;;1.50;;
48743;SDS011;34538;48.836;9.174;2023-02-25T15:09:22;3.03;;;1.17;;
48743;SDS011;34538;48.836;9.174;2023-02-25T15:12:06;2.88;;;1.02;;
48743;SDS011;34538;48.836;9.174;2023-02-25T15:20:57;4.82;;;1.10;;
48743;SDS011;34538;48.836;9.174;2023-02-25T15:23:48;4.57;;;1.30;;
48743;SDS011;34538;48.836;9.174;2023-02-25T15:26:20;2.97;;;1.10;;
48743;SDS011;34538;48.836;9.174;2023-02-25T15:28:51;3.90;;;1.30;;
48743;SDS011;34538;48.836;9.174;2023-02-25T15:37:27;5.75;;;1.40;;
48743;SDS011;34538;48.836;9.174;2023-02-25T15:39:57;4.25;;;0.82;;
48743;SDS011;34538;48.836;9.174;2023-02-25T15:42:37;3.60;;;0.93;;
48743;SDS011;34538;48.836;9.174;2023-02-25T15:48:23;2.40;;;0.90;;
48743;SDS011;34538;48.836;9.174;2023-02-25T15:50:58;3.30;;;1.08;;
48743;SDS011;34538;48.836;9.174;2023-02-25T15:53:38;3.92;;;1.40;;
48743;SDS011;34538;48.836;9.174;2023-02-25T16:05:14;3.45;;;1.40;;
48743;SDS011;34538;48.836;9.174;2023-02-25T16:07:48;4.22;;;1.52;;
48743;SDS011;34538;48.836;9.174;2023-02-25T16:10:20;4.27;;;1.50;;
48743;SDS011;34538;48.836;9.174;2023-02-25T16:12:51;5.30;;;1.63;;
48743;SDS011;34538;48.836;9.174;2023-02-25T16:15:24;3.45;;;1.70;;
48743;SDS011;34538;48.836;9.174;2023-02-25T16:17:56;6.07;;;2.25;;
48743;SDS011;34538;48.836;9.174;2023-02-25T16:20:28;3.63;;;1.80;;
48743;SDS011;34538;48.836;9.174;2023-02-25T16:25:29;3.28;;;1.42;;